CYZS

Coral Harbour Airport

Coral Harbour, Canada
METAR CYZS 170700Z 33007KT 15SM FEW035 M28/M32 A2963 RMK SC1 SC TR SLP043
Observed Flight Rules
Dec-17 @ 07:00 UTC (an hour ago) Visual Flight Rules
Wind Visibility Clouds
330° at 7 knots 15 miles
  • Few at 3,500' AGL
Temperatures Readings
Current -28°C / -18°F
Dewpoint -32°C / -26°F
Humidity 69%
Altimeter 29.63" Hg
Pressure 1004.3 hPa
Elevation 64
METAR CYZS 170700Z 33007KT 15SM FEW035 M28/M32 A2963 RMK SC1 SC TR SLP043
Observed Flight Rules
Dec-17 @ 07:00 UTC
(an hour ago)
VFR
Wind Visibility
330° at 7 knots 15 miles
Clouds
  • Few at 3,500' AGL
Temperature Dewpoint
-28°C / -18°F -32°C / -26°F
Humidity Altimeter Pressure
69% 29.63" Hg 1004.3 hPa